New Harbour, Canada
Current Conditions -  °F | °C
As of 4:00 PM on Friday 24 Oct 2014 (Local Time) from CYYT Reporting Station
Light Rain Light Rain  
Wind Chill: 10°   Ceiling: 100
Heat Index: 10°   Visibility: 0.25mi
Dew Point: 10°   Wind: 14mph
Humidity: 100%   Direction: 90°E
Pressure: 29.79"   Gusts: NA
Location:  47.58°N, 53.55°W
Report Text: CYYT 241800Z 09012KT 1/4SM R11/4000FT/N -RA FG VV001 10/10 A2979 RMK FG8 SLP090
Loading
Personal Weather Stations






























Interactive Weather Map
Tropical Storm Tracking
New forecast layout! Learn more

10-Day Weather Forecast

Advertisements
Track Severe Weather on mobile